createdAt,value
2024-04-07T00:00:52.686Z,13.10
2024-04-07T00:03:41.135Z,12.20
2024-04-07T00:06:09.186Z,10.20
2024-04-07T00:08:36.771Z,9.10
2024-04-07T00:11:04.521Z,9.50
2024-04-07T00:13:32.206Z,24.40
2024-04-07T00:16:01.319Z,11.00
2024-04-07T00:18:29.366Z,10.90
2024-04-07T00:21:03.821Z,11.80
2024-04-07T00:26:00.173Z,14.30
2024-04-07T00:28:27.998Z,12.10
2024-04-07T00:30:55.846Z,12.80
2024-04-07T00:33:23.819Z,11.50
2024-04-07T00:35:55.812Z,11.70
2024-04-07T00:38:23.633Z,22.40
2024-04-07T00:40:58.196Z,13.20
2024-04-07T00:43:27.598Z,14.00
2024-04-07T00:45:56.952Z,23.80
2024-04-07T00:48:26.124Z,26.30
2024-04-07T00:50:55.772Z,13.00
2024-04-07T00:53:23.652Z,11.00
2024-04-07T00:55:51.250Z,12.00
2024-04-07T00:58:20.139Z,13.30
2024-04-07T01:00:47.940Z,17.10
2024-04-07T01:03:16.897Z,11.10
2024-04-07T01:05:48.350Z,10.20
2024-04-07T01:08:17.805Z,10.80
2024-04-07T01:10:52.759Z,10.00
2024-04-07T01:13:25.745Z,10.10
2024-04-07T01:16:45.010Z,11.10
2024-04-07T01:19:12.618Z,16.60
2024-04-07T01:21:40.270Z,12.90
2024-04-07T01:24:07.901Z,12.20
2024-04-07T01:26:35.493Z,13.00
2024-04-07T01:29:03.221Z,15.80
2024-04-07T01:31:32.701Z,21.60
2024-04-07T01:34:00.251Z,16.10
2024-04-07T01:36:27.856Z,14.10
2024-04-07T01:38:55.677Z,16.60
2024-04-07T01:41:23.473Z,11.60
2024-04-07T01:43:51.025Z,10.50
2024-04-07T01:46:18.684Z,11.80
2024-04-07T01:48:48.638Z,11.40
2024-04-07T01:51:16.573Z,12.00
2024-04-07T01:53:44.157Z,11.10
2024-04-07T01:56:11.895Z,11.50
2024-04-07T01:58:39.470Z,11.20
2024-04-07T02:01:07.138Z,13.20
2024-04-07T02:03:34.742Z,38.70
2024-04-07T02:06:02.332Z,13.00
2024-04-07T02:08:30.044Z,11.20
2024-04-07T02:10:57.921Z,15.60
2024-04-07T02:13:25.527Z,35.40
2024-04-07T02:15:55.507Z,31.80
2024-04-07T02:18:23.277Z,29.20
2024-04-07T02:20:52.509Z,30.50
2024-04-07T02:23:20.532Z,31.80
2024-04-07T02:25:48.440Z,18.60
2024-04-07T02:28:17.159Z,13.50
2024-04-07T02:30:45.030Z,11.20
2024-04-07T02:33:13.845Z,10.50
2024-04-07T02:35:41.997Z,31.60
2024-04-07T02:38:11.614Z,42.10
2024-04-07T02:40:40.275Z,23.10
2024-04-07T02:43:07.951Z,15.00
2024-04-07T02:45:54.537Z,10.80
2024-04-07T02:48:22.191Z,12.90
2024-04-07T02:50:49.733Z,35.10
2024-04-07T02:53:17.385Z,36.80
2024-04-07T02:55:45.623Z,12.80
2024-04-07T02:58:13.217Z,10.70
2024-04-07T03:00:40.809Z,12.20
2024-04-07T03:03:08.749Z,10.50
2024-04-07T03:05:42.387Z,10.70
2024-04-07T03:08:16.121Z,10.50
2024-04-07T03:10:44.389Z,12.50
2024-04-07T03:13:11.995Z,10.50
2024-04-07T03:15:39.591Z,10.30
2024-04-07T03:18:08.111Z,10.40
2024-04-07T03:20:35.824Z,10.40
2024-04-07T03:23:03.735Z,10.80
2024-04-07T03:25:31.394Z,15.70
2024-04-07T03:27:59.105Z,13.40
2024-04-07T03:30:27.482Z,10.80
2024-04-07T03:32:55.095Z,12.20
2024-04-07T03:35:22.757Z,11.00
2024-04-07T03:37:51.440Z,12.70
2024-04-07T03:40:19.287Z,47.10
2024-04-07T03:42:46.950Z,20.40
2024-04-07T03:45:14.600Z,13.30
2024-04-07T03:47:42.489Z,14.50
2024-04-07T03:50:10.705Z,11.90
2024-04-07T03:52:38.279Z,12.20
2024-04-07T03:55:06.026Z,20.00
2024-04-07T03:57:34.054Z,11.70
2024-04-07T04:00:01.861Z,9.40
2024-04-07T04:02:40.698Z,11.70
2024-04-07T04:05:08.801Z,11.20
2024-04-07T04:07:36.795Z,10.50
2024-04-07T04:10:04.758Z,10.30
2024-04-07T04:12:32.998Z,9.50
2024-04-07T04:15:01.710Z,10.70
2024-04-07T04:17:29.986Z,10.40
2024-04-07T04:19:57.566Z,10.00
2024-04-07T04:22:25.237Z,9.70
2024-04-07T04:24:52.841Z,9.20
2024-04-07T04:27:20.409Z,10.50
2024-04-07T04:29:48.257Z,15.60
2024-04-07T04:32:15.924Z,17.10
2024-04-07T04:34:43.553Z,14.30
2024-04-07T04:37:11.240Z,10.50
2024-04-07T04:39:38.882Z,10.30
2024-04-07T04:42:07.319Z,9.60
2024-04-07T04:44:35.647Z,9.50
2024-04-07T04:47:03.923Z,9.70
2024-04-07T04:49:31.827Z,9.90
2024-04-07T04:52:00.497Z,19.00
2024-04-07T04:54:28.184Z,14.70
2024-04-07T04:56:55.770Z,10.80
2024-04-07T04:59:23.380Z,10.00
2024-04-07T05:01:51.493Z,9.70
2024-04-07T05:04:19.493Z,9.40
2024-04-07T05:06:47.086Z,8.90
2024-04-07T05:09:15.403Z,10.40
2024-04-07T05:11:43.179Z,9.20
2024-04-07T05:14:10.886Z,9.20
2024-04-07T05:16:38.755Z,9.30
2024-04-07T05:19:07.100Z,10.10
2024-04-07T05:21:34.681Z,10.20
2024-04-07T05:24:02.516Z,10.30
2024-04-07T05:26:30.282Z,10.10
2024-04-07T05:28:57.883Z,10.50
2024-04-07T05:31:25.505Z,9.70
2024-04-07T05:33:54.199Z,10.20
2024-04-07T05:36:21.881Z,10.80
2024-04-07T05:38:50.286Z,11.20
2024-04-07T05:41:17.831Z,11.90
2024-04-07T05:43:45.632Z,10.90
2024-04-07T05:46:13.225Z,11.90
2024-04-07T05:48:40.854Z,12.30
2024-04-07T05:51:15.378Z,11.50
2024-04-07T05:53:43.666Z,12.30
2024-04-07T05:56:12.660Z,11.70
2024-04-07T05:58:41.705Z,12.30
2024-04-07T06:01:10.220Z,11.70
2024-04-07T06:04:09.252Z,12.30
2024-04-07T06:06:36.886Z,12.00
2024-04-07T06:09:04.984Z,11.40
2024-04-07T06:11:32.580Z,11.60
2024-04-07T06:14:00.449Z,11.60
2024-04-07T06:16:28.136Z,10.50
2024-04-07T06:18:55.872Z,12.10
2024-04-07T06:21:28.494Z,11.10
2024-04-07T06:23:56.184Z,13.10
2024-04-07T06:26:23.900Z,10.40
2024-04-07T06:28:51.649Z,9.80
2024-04-07T06:31:19.265Z,9.80
2024-04-07T06:33:47.014Z,9.30
2024-04-07T06:36:14.809Z,9.80
2024-04-07T06:38:42.554Z,9.40
2024-04-07T06:41:10.290Z,9.40
2024-04-07T06:43:39.140Z,9.60
2024-04-07T06:46:07.998Z,9.40
2024-04-07T06:48:35.862Z,9.50
2024-04-07T06:51:03.669Z,8.50
2024-04-07T06:53:31.405Z,7.90
2024-04-07T06:55:59.063Z,8.20
2024-04-07T06:58:26.680Z,8.40
2024-04-07T07:00:54.407Z,8.30
2024-04-07T07:03:22.042Z,8.20
2024-04-07T07:05:50.588Z,7.20
2024-04-07T07:08:19.563Z,6.90
2024-04-07T07:11:00.811Z,7.60
2024-04-07T07:13:34.070Z,7.60
2024-04-07T07:16:01.962Z,7.30
2024-04-07T07:18:29.641Z,7.20
2024-04-07T07:20:57.222Z,6.60
2024-04-07T07:23:27.864Z,6.80
2024-04-07T07:25:55.712Z,6.60
2024-04-07T07:28:23.381Z,6.40
2024-04-07T07:30:51.071Z,6.70
2024-04-07T07:33:18.666Z,5.80
2024-04-07T07:35:46.412Z,7.30
2024-04-07T07:38:14.363Z,6.80
2024-04-07T07:40:44.124Z,6.70
2024-04-07T07:43:13.295Z,6.90
2024-04-07T07:45:41.618Z,7.20
2024-04-07T07:48:16.766Z,6.60
2024-04-07T07:50:52.310Z,7.50
2024-04-07T07:53:20.792Z,6.60
2024-04-07T07:55:59.816Z,7.10
2024-04-07T07:58:28.449Z,6.80
2024-04-07T08:01:00.505Z,7.70
2024-04-07T08:03:28.673Z,8.40
2024-04-07T08:05:57.997Z,7.50
2024-04-07T08:08:25.837Z,8.20
2024-04-07T08:10:54.565Z,7.40
2024-04-07T08:13:22.835Z,7.60
2024-04-07T08:15:51.354Z,7.30
2024-04-07T08:18:19.806Z,7.30
2024-04-07T08:20:47.671Z,7.40
2024-04-07T08:23:19.651Z,7.30
2024-04-07T08:25:47.499Z,7.80
2024-04-07T08:28:22.727Z,7.10
2024-04-07T08:30:54.126Z,7.20
2024-04-07T08:33:22.035Z,7.70
2024-04-07T08:35:52.585Z,7.10
2024-04-07T08:38:21.684Z,7.80
2024-04-07T08:40:50.564Z,6.90
2024-04-07T08:43:20.471Z,6.90
2024-04-07T08:45:50.948Z,6.30
2024-04-07T08:48:20.063Z,6.50
2024-04-07T08:50:48.920Z,6.50
2024-04-07T08:53:18.310Z,6.80
2024-04-07T08:55:50.047Z,7.20
2024-04-07T08:58:19.950Z,6.50
2024-04-07T09:00:54.307Z,6.60
2024-04-07T09:03:22.282Z,6.20
2024-04-07T09:05:50.221Z,6.70
2024-04-07T09:08:18.088Z,4.80
2024-04-07T09:10:45.962Z,3.90
2024-04-07T09:13:13.715Z,4.80
2024-04-07T09:15:42.127Z,4.50
2024-04-07T09:18:12.561Z,3.40
2024-04-07T09:20:41.276Z,4.60
2024-04-07T09:23:13.890Z,4.60
2024-04-07T09:25:49.143Z,4.10
2024-04-07T09:28:18.414Z,2.50
2024-04-07T09:30:46.785Z,2.70
2024-04-07T09:33:14.867Z,2.70
2024-04-07T09:35:44.094Z,2.90
2024-04-07T09:38:12.578Z,2.40
2024-04-07T09:40:50.151Z,2.40
2024-04-07T09:43:22.370Z,2.30
2024-04-07T09:48:31.754Z,2.40
2024-04-07T09:51:06.583Z,2.40
2024-04-07T09:54:20.082Z,2.40
2024-04-07T09:56:48.882Z,2.40
2024-04-07T09:59:16.962Z,1.90
2024-04-07T10:01:45.124Z,2.20
2024-04-07T10:04:13.446Z,2.10
2024-04-07T10:06:41.447Z,2.30
2024-04-07T10:09:10.944Z,2.80
2024-04-07T10:11:48.565Z,2.40
2024-04-07T10:14:16.825Z,2.30
2024-04-07T10:16:52.276Z,2.00
2024-04-07T10:19:27.730Z,2.60
2024-04-07T10:21:55.817Z,2.50
2024-04-07T10:24:24.409Z,2.50
2024-04-07T10:27:00.896Z,2.50
2024-04-07T10:29:31.816Z,2.50
2024-04-07T10:32:02.448Z,2.30
2024-04-07T10:34:30.345Z,2.50
2024-04-07T10:36:59.348Z,2.50
2024-04-07T10:39:28.959Z,2.50
2024-04-07T10:41:58.350Z,1.80
2024-04-07T10:44:27.850Z,1.80
2024-04-07T10:46:56.169Z,1.80
2024-04-07T10:49:25.321Z,2.30
2024-04-07T10:51:53.495Z,2.10
2024-04-07T10:54:22.436Z,2.40
2024-04-07T10:56:52.521Z,2.50
2024-04-07T10:59:20.220Z,2.20
2024-04-07T11:01:51.542Z,2.60
2024-04-07T11:08:55.670Z,2.80
2024-04-07T11:11:24.491Z,2.40
2024-04-07T11:13:58.382Z,2.50
2024-04-07T11:16:26.497Z,2.20
2024-04-07T11:18:57.506Z,2.70
2024-04-07T11:21:27.884Z,2.60
2024-04-07T11:23:55.799Z,2.80
2024-04-07T11:26:30.480Z,2.60
2024-04-07T11:28:59.476Z,2.60
2024-04-07T11:31:27.322Z,2.90
2024-04-07T11:33:54.913Z,2.70
2024-04-07T11:36:22.614Z,2.40
2024-04-07T11:38:50.711Z,2.60
2024-04-07T11:41:18.383Z,2.70
2024-04-07T11:43:45.940Z,2.40
2024-04-07T11:46:13.645Z,2.60
2024-04-07T11:48:41.333Z,3.10
2024-04-07T11:51:09.701Z,3.50
2024-04-07T11:53:37.362Z,3.30
2024-04-07T11:56:05.702Z,3.00
2024-04-07T11:58:35.071Z,3.00
2024-04-07T12:01:03.088Z,3.00
2024-04-07T12:03:31.266Z,3.30
2024-04-07T12:06:02.590Z,3.10
2024-04-07T12:08:30.213Z,2.90
2024-04-07T12:10:58.026Z,3.00
2024-04-07T12:13:25.679Z,3.30
2024-04-07T12:15:53.458Z,2.90
2024-04-07T12:18:23.176Z,2.50
2024-04-07T12:20:54.084Z,2.00
2024-04-07T12:23:22.380Z,1.90
2024-04-07T12:25:53.621Z,2.50
2024-04-07T12:28:21.740Z,2.20
2024-04-07T12:30:51.618Z,2.50
2024-04-07T12:33:22.450Z,2.00
2024-04-07T12:35:50.689Z,2.30
2024-04-07T12:38:21.602Z,2.10
2024-04-07T12:40:49.315Z,1.80
2024-04-07T12:43:18.043Z,2.20
2024-04-07T12:45:45.925Z,1.90
2024-04-07T12:48:21.126Z,1.60
2024-04-07T12:50:48.834Z,1.60
2024-04-07T12:53:16.652Z,1.40
2024-04-07T12:55:44.397Z,1.50
2024-04-07T12:58:12.165Z,1.50
2024-04-07T13:00:40.155Z,1.50
2024-04-07T13:03:07.811Z,1.70
2024-04-07T13:05:37.605Z,1.20
2024-04-07T13:08:05.539Z,1.50
2024-04-07T13:10:33.658Z,1.70
2024-04-07T13:13:01.206Z,1.30
2024-04-07T13:15:28.820Z,1.70
2024-04-07T13:17:56.655Z,1.40
2024-04-07T13:20:24.253Z,1.40
2024-04-07T13:22:52.060Z,1.40
2024-04-07T13:25:19.814Z,1.40
2024-04-07T13:27:47.418Z,1.40
2024-04-07T13:30:15.502Z,1.60
2024-04-07T13:32:43.092Z,1.60
2024-04-07T13:35:11.893Z,1.30
2024-04-07T13:37:39.923Z,1.60
2024-04-07T13:40:07.813Z,1.60
2024-04-07T13:42:35.512Z,1.50
2024-04-07T13:45:04.545Z,1.60
2024-04-07T13:47:32.232Z,1.60
2024-04-07T13:50:00.372Z,1.30
2024-04-07T13:52:27.971Z,1.30
2024-04-07T13:54:59.302Z,1.40
2024-04-07T13:57:26.946Z,1.60
2024-04-07T13:59:55.680Z,1.70
2024-04-07T14:02:23.241Z,1.60
2024-04-07T14:04:51.052Z,1.50
2024-04-07T14:07:18.696Z,1.50
2024-04-07T14:09:46.328Z,1.30
2024-04-07T14:12:13.888Z,1.40
2024-04-07T14:14:41.510Z,1.70
2024-04-07T14:17:10.448Z,1.80
2024-04-07T14:19:40.813Z,1.50
2024-04-07T14:22:08.579Z,1.60
2024-04-07T14:24:36.851Z,1.50
2024-04-07T14:27:08.078Z,1.50
2024-04-07T14:29:35.656Z,1.50
2024-04-07T14:32:05.338Z,1.50
2024-04-07T14:34:33.720Z,1.80
2024-04-07T14:37:02.275Z,1.80
2024-04-07T14:39:30.155Z,1.50
2024-04-07T14:41:57.826Z,1.60
2024-04-07T14:44:25.388Z,2.10
2024-04-07T14:46:53.754Z,1.80
2024-04-07T14:49:22.343Z,1.80
2024-04-07T14:51:49.897Z,1.70
2024-04-07T14:54:17.799Z,1.70
2024-04-07T14:56:45.347Z,1.80
2024-04-07T14:59:12.991Z,1.80
2024-04-07T15:01:40.700Z,2.40
2024-04-07T15:04:08.306Z,2.40
2024-04-07T15:06:35.853Z,2.50
2024-04-07T15:09:03.818Z,1.90
2024-04-07T15:11:31.408Z,1.90
2024-04-07T15:13:58.973Z,2.10
2024-04-07T15:16:26.602Z,1.90
2024-04-07T15:18:54.267Z,1.90
2024-04-07T15:21:21.839Z,2.00
2024-04-07T15:23:49.513Z,1.60
2024-04-07T15:26:17.220Z,1.80
2024-04-07T15:28:45.810Z,1.90
2024-04-07T15:31:14.516Z,1.90
2024-04-07T15:33:42.053Z,1.90
2024-04-07T15:36:10.070Z,2.00
2024-04-07T15:38:37.744Z,1.80
2024-04-07T15:41:05.390Z,2.70
2024-04-07T15:43:40.536Z,2.70
2024-04-07T15:46:08.777Z,1.90
2024-04-07T15:48:36.621Z,1.90
2024-04-07T15:51:04.499Z,1.70
2024-04-07T15:53:32.882Z,1.80
2024-04-07T15:56:00.554Z,2.10
2024-04-07T15:58:28.832Z,2.00
2024-04-07T16:00:56.431Z,1.80
2024-04-07T16:03:27.708Z,1.90
2024-04-07T16:05:55.369Z,1.90
2024-04-07T16:08:22.904Z,1.80
2024-04-07T16:10:50.691Z,2.00
2024-04-07T16:13:18.759Z,2.50
2024-04-07T16:15:46.526Z,2.30
2024-04-07T16:18:14.270Z,2.50
2024-04-07T16:20:42.700Z,2.70
2024-04-07T16:23:10.399Z,2.40
2024-04-07T16:25:38.075Z,2.50
2024-04-07T16:28:05.773Z,2.20
2024-04-07T16:30:33.486Z,2.50
2024-04-07T16:33:01.168Z,1.90
2024-04-07T16:35:28.815Z,2.40
2024-04-07T16:37:56.576Z,2.40
2024-04-07T16:40:24.209Z,3.00
2024-04-07T16:42:52.318Z,2.40
2024-04-07T16:45:20.024Z,2.40
2024-04-07T16:47:48.179Z,2.20
2024-04-07T16:50:16.045Z,2.30
2024-04-07T16:52:43.827Z,2.20
2024-04-07T16:55:11.862Z,2.70
2024-04-07T16:57:39.580Z,2.20
2024-04-07T17:00:07.896Z,2.60
2024-04-07T17:02:35.563Z,2.30
2024-04-07T17:05:03.398Z,2.50
2024-04-07T17:07:31.137Z,2.50
2024-04-07T17:09:58.805Z,2.40
2024-04-07T17:12:26.632Z,2.70
2024-04-07T17:14:54.414Z,2.50
2024-04-07T17:17:22.902Z,2.80
2024-04-07T17:19:50.844Z,2.90
2024-04-07T17:22:18.808Z,2.50
2024-04-07T17:24:46.543Z,2.80
2024-04-07T17:27:14.277Z,3.20
2024-04-07T17:29:41.977Z,3.00
2024-04-07T17:32:09.924Z,3.00
2024-04-07T17:34:40.702Z,3.20
2024-04-07T17:37:09.005Z,3.10
2024-04-07T17:39:36.888Z,2.90
2024-04-07T17:42:05.197Z,3.20
2024-04-07T17:44:35.928Z,2.90
2024-04-07T17:47:03.762Z,3.40
2024-04-07T17:49:31.723Z,3.20
2024-04-07T17:51:59.620Z,3.20
2024-04-07T17:54:27.388Z,3.10
2024-04-07T17:56:55.072Z,3.30
2024-04-07T17:59:23.821Z,3.10
2024-04-07T18:01:59.133Z,3.30
2024-04-07T18:04:27.402Z,3.10
2024-04-07T18:06:55.407Z,3.50
2024-04-07T18:09:23.109Z,4.30
2024-04-07T18:11:51.019Z,3.90
2024-04-07T18:14:19.183Z,3.80
2024-04-07T18:16:47.068Z,3.70
2024-04-07T18:19:14.672Z,3.50
2024-04-07T18:21:43.915Z,3.10
2024-04-07T18:24:12.191Z,3.30
2024-04-07T18:26:39.868Z,3.30
2024-04-07T18:29:09.121Z,4.00
2024-04-07T18:31:36.780Z,3.20
2024-04-07T18:34:04.499Z,3.40
2024-04-07T18:36:32.140Z,3.50
2024-04-07T18:38:59.809Z,3.40
2024-04-07T18:41:27.570Z,3.00
2024-04-07T18:43:55.625Z,3.30
2024-04-07T18:46:30.672Z,3.50
2024-04-07T18:49:01.398Z,4.00
2024-04-07T18:51:30.173Z,4.60
2024-04-07T18:53:57.813Z,4.30
2024-04-07T18:56:25.947Z,4.70
2024-04-07T18:58:53.569Z,4.20
2024-04-07T19:01:22.004Z,5.00
2024-04-07T19:03:49.612Z,5.20
2024-04-07T19:06:17.776Z,4.70
2024-04-07T19:08:46.535Z,5.30
2024-04-07T19:11:14.120Z,5.50
2024-04-07T19:13:43.807Z,4.50
2024-04-07T19:16:11.654Z,5.60
2024-04-07T19:18:40.781Z,6.10
2024-04-07T19:21:09.959Z,5.00
2024-04-07T19:23:39.066Z,8.40
2024-04-07T19:26:10.009Z,6.90
2024-04-07T19:28:39.690Z,6.20
2024-04-07T19:31:13.545Z,6.90
2024-04-07T19:33:41.738Z,6.80
2024-04-07T19:36:11.428Z,6.40
2024-04-07T19:38:39.292Z,6.00
2024-04-07T19:41:06.907Z,7.40
2024-04-07T19:43:34.629Z,7.00
2024-04-07T19:46:02.739Z,6.90
2024-04-07T19:48:30.949Z,6.60
2024-04-07T19:51:01.525Z,8.90
2024-04-07T19:53:29.359Z,6.80
2024-04-07T19:55:57.050Z,8.70
2024-04-07T19:58:24.579Z,11.00
2024-04-07T20:00:54.951Z,10.50
2024-04-07T20:03:25.826Z,10.20
2024-04-07T20:05:54.476Z,11.00
2024-04-07T20:08:22.127Z,7.40
2024-04-07T20:10:51.695Z,7.70
2024-04-07T20:13:20.321Z,7.80
2024-04-07T20:15:50.156Z,6.90
2024-04-07T20:18:20.571Z,7.50
2024-04-07T20:20:49.153Z,7.90
2024-04-07T20:23:17.232Z,11.40
2024-04-07T20:25:44.848Z,9.80
2024-04-07T20:28:14.204Z,21.60
2024-04-07T20:30:41.857Z,13.30
2024-04-07T20:33:10.393Z,11.30
2024-04-07T20:35:38.057Z,10.40
2024-04-07T20:38:06.880Z,9.30
2024-04-07T20:40:35.740Z,8.40
2024-04-07T20:43:03.439Z,8.60
2024-04-07T20:45:31.205Z,11.70
2024-04-07T20:47:58.827Z,8.60
2024-04-07T20:50:30.129Z,8.10
2024-04-07T20:52:58.021Z,8.10
2024-04-07T20:55:25.642Z,15.10
2024-04-07T20:57:53.359Z,12.90
2024-04-07T21:00:30.293Z,11.50
2024-04-07T21:03:05.133Z,29.60
2024-04-07T21:05:33.004Z,8.40
2024-04-07T21:08:00.597Z,7.30
2024-04-07T21:10:28.418Z,7.70
2024-04-07T21:12:56.991Z,7.30
2024-04-07T21:15:24.582Z,10.90
2024-04-07T21:17:52.233Z,9.00
2024-04-07T21:20:22.079Z,8.10
2024-04-07T21:22:49.832Z,6.40
2024-04-07T21:25:18.286Z,7.00
2024-04-07T21:27:45.887Z,17.70
2024-04-07T21:30:15.686Z,6.70
2024-04-07T21:32:43.367Z,7.70
2024-04-07T21:35:11.315Z,9.00
2024-04-07T21:37:41.682Z,8.30
2024-04-07T21:40:11.247Z,6.40
2024-04-07T21:42:38.909Z,5.90
2024-04-07T21:45:07.277Z,5.50
2024-04-07T21:47:34.925Z,10.20
2024-04-07T21:50:02.682Z,7.20
2024-04-07T21:52:30.270Z,23.10
2024-04-07T21:54:57.876Z,8.70
2024-04-07T21:57:25.455Z,16.20
2024-04-07T21:59:53.108Z,13.80
2024-04-07T22:02:20.725Z,22.90
2024-04-07T22:04:48.536Z,17.10
2024-04-07T22:07:16.180Z,6.40
2024-04-07T22:09:43.887Z,6.80
2024-04-07T22:12:11.984Z,6.50
2024-04-07T22:14:39.521Z,20.10
2024-04-07T22:17:07.154Z,15.00
2024-04-07T22:19:34.898Z,8.40
2024-04-07T22:22:04.310Z,7.70
2024-04-07T22:24:33.319Z,7.90
2024-04-07T22:27:00.940Z,6.70
2024-04-07T22:29:28.773Z,9.00
2024-04-07T22:31:56.392Z,39.80
2024-04-07T22:34:23.946Z,10.70
2024-04-07T22:36:51.739Z,10.40
2024-04-07T22:39:19.885Z,10.60
2024-04-07T22:41:47.809Z,19.50
2024-04-07T22:44:15.697Z,7.40
2024-04-07T22:46:43.430Z,6.50
2024-04-07T22:49:13.357Z,6.00
2024-04-07T22:51:40.970Z,12.50
2024-04-07T22:54:08.523Z,14.40
2024-04-07T22:56:36.731Z,14.60
2024-04-07T22:59:04.456Z,13.80
2024-04-07T23:01:32.505Z,12.50
2024-04-07T23:04:00.175Z,9.20
2024-04-07T23:06:27.855Z,7.50
2024-04-07T23:08:55.592Z,10.10
2024-04-07T23:11:24.841Z,11.60
2024-04-07T23:13:52.462Z,9.30
2024-04-07T23:16:20.054Z,19.10
2024-04-07T23:18:47.779Z,6.70
2024-04-07T23:21:16.507Z,10.20
2024-04-07T23:23:44.618Z,11.50
2024-04-07T23:26:12.316Z,7.70
2024-04-07T23:28:42.469Z,14.70
2024-04-07T23:31:13.185Z,7.30
2024-04-07T23:33:42.673Z,7.90
2024-04-07T23:36:10.272Z,8.60
2024-04-07T23:38:37.905Z,7.20
2024-04-07T23:41:06.134Z,7.20
2024-04-07T23:43:33.752Z,12.40
2024-04-07T23:46:01.994Z,21.80
2024-04-07T23:48:29.601Z,10.90
2024-04-07T23:50:57.633Z,8.50
2024-04-07T23:53:25.281Z,32.50
2024-04-07T23:55:54.066Z,9.00
2024-04-07T23:58:21.678Z,9.60
